createdAt,value
2022-12-05T00:00:33.303Z,42.10
2022-12-05T00:03:06.692Z,44.08
2022-12-05T00:05:35.967Z,43.08
2022-12-05T00:08:05.362Z,44.00
2022-12-05T00:10:39.310Z,43.42
2022-12-05T00:13:08.883Z,42.38
2022-12-05T00:15:40.160Z,43.85
2022-12-05T00:18:09.622Z,44.23
2022-12-05T00:20:38.873Z,44.08
2022-12-05T00:23:08.109Z,43.02
2022-12-05T00:25:38.038Z,42.83
2022-12-05T00:28:07.341Z,41.60
2022-12-05T00:30:36.788Z,44.27
2022-12-05T00:33:06.009Z,43.65
2022-12-05T00:35:35.637Z,44.03
2022-12-05T00:38:04.854Z,43.60
2022-12-05T00:40:36.642Z,43.73
2022-12-05T00:43:05.884Z,44.83
2022-12-05T00:45:35.225Z,45.92
2022-12-05T00:48:06.035Z,44.90
2022-12-05T00:50:35.262Z,44.95
2022-12-05T00:53:04.528Z,43.08
2022-12-05T00:55:35.005Z,44.35
2022-12-05T00:58:04.435Z,44.08
2022-12-05T01:00:33.923Z,44.70
2022-12-05T01:03:03.266Z,44.42
2022-12-05T01:05:35.177Z,44.15
2022-12-05T01:08:04.559Z,46.90
2022-12-05T01:10:34.286Z,44.40
2022-12-05T01:13:03.551Z,44.60
2022-12-05T01:15:32.867Z,44.50
2022-12-05T01:18:03.754Z,45.85
2022-12-05T01:20:32.960Z,45.10
2022-12-05T01:23:02.238Z,45.65
2022-12-05T01:25:31.474Z,46.02
2022-12-05T01:28:00.894Z,45.10
2022-12-05T01:30:30.330Z,44.00
2022-12-05T01:33:00.620Z,44.42
2022-12-05T01:35:34.722Z,45.20
2022-12-05T01:38:04.696Z,44.05
2022-12-05T01:40:37.128Z,44.70
2022-12-05T01:45:39.797Z,44.30
2022-12-05T01:50:39.854Z,42.93
2022-12-05T01:53:09.390Z,45.15
2022-12-05T01:55:39.516Z,45.08
2022-12-05T01:58:09.447Z,44.98
2022-12-05T02:00:40.723Z,46.33
2022-12-05T02:03:12.804Z,44.67
2022-12-05T02:05:42.701Z,44.38
2022-12-05T02:08:12.892Z,45.35
2022-12-05T02:10:45.369Z,45.12
2022-12-05T02:13:29.436Z,44.77
2022-12-05T02:16:17.322Z,44.93
2022-12-05T02:19:07.943Z,46.02
2022-12-05T02:21:40.329Z,45.43
2022-12-05T02:24:21.718Z,44.55
2022-12-05T02:27:21.481Z,44.45
2022-12-05T02:30:11.165Z,43.02
2022-12-05T02:33:00.127Z,45.33
2022-12-05T02:35:50.798Z,43.75
2022-12-05T02:38:40.748Z,44.70
2022-12-05T02:41:18.011Z,45.00
2022-12-05T02:43:56.541Z,45.10
2022-12-05T02:46:28.284Z,44.27
2022-12-05T02:49:00.975Z,45.25
2022-12-05T02:54:02.837Z,44.58
2022-12-05T02:56:33.788Z,44.73
2022-12-05T02:59:03.269Z,45.58
2022-12-05T03:01:33.529Z,44.23
2022-12-05T03:04:05.216Z,45.17
2022-12-05T03:06:37.682Z,45.67
2022-12-05T03:09:18.723Z,46.77
2022-12-05T03:11:53.890Z,46.05
2022-12-05T03:14:26.567Z,45.08
2022-12-05T03:16:58.732Z,46.23
2022-12-05T03:19:37.378Z,45.83
2022-12-05T03:22:14.992Z,45.58
2022-12-05T03:24:44.225Z,45.70
2022-12-05T03:27:27.828Z,46.90
2022-12-05T03:30:08.714Z,46.00
2022-12-05T03:33:07.242Z,45.35
2022-12-05T03:35:55.633Z,45.30
2022-12-05T03:38:34.319Z,45.45
2022-12-05T03:41:26.442Z,45.28
2022-12-05T03:44:14.149Z,46.35
2022-12-05T03:46:46.053Z,47.45
2022-12-05T03:49:33.507Z,45.73
2022-12-05T03:52:01.700Z,45.08
2022-12-05T03:59:43.145Z,44.75
2022-12-05T04:02:15.153Z,45.33
2022-12-05T04:04:47.561Z,46.05
2022-12-05T04:07:18.611Z,45.38
2022-12-05T04:09:51.023Z,47.40
2022-12-05T04:12:25.971Z,47.17
2022-12-05T04:15:00.929Z,46.95
2022-12-05T04:18:00.451Z,46.75
2022-12-05T04:20:52.944Z,45.23
2022-12-05T04:23:22.466Z,47.27
2022-12-05T04:26:06.284Z,46.30
2022-12-05T04:28:44.642Z,45.90
2022-12-05T04:31:22.900Z,45.85
2022-12-05T04:34:07.696Z,46.08
2022-12-05T04:36:57.824Z,46.88
2022-12-05T04:39:36.443Z,45.92
2022-12-05T04:42:11.771Z,45.75
2022-12-05T04:44:47.141Z,47.30
2022-12-05T04:47:18.286Z,44.83
2022-12-05T04:49:52.163Z,45.85
2022-12-05T04:52:19.020Z,44.27
2022-12-05T04:54:54.571Z,45.33
2022-12-05T04:57:29.285Z,45.03
2022-12-05T04:59:58.962Z,45.10
2022-12-05T05:02:31.652Z,45.12
2022-12-05T05:07:30.290Z,43.52
2022-12-05T05:09:59.790Z,47.03
2022-12-05T05:12:29.142Z,46.83
2022-12-05T05:14:58.406Z,45.20
2022-12-05T05:17:27.628Z,45.12
2022-12-05T05:19:58.781Z,45.88
2022-12-05T05:22:28.134Z,48.33
2022-12-05T05:24:57.575Z,46.70
2022-12-05T05:27:26.815Z,46.25
2022-12-05T05:29:56.629Z,45.78
2022-12-05T05:32:26.192Z,46.63
2022-12-05T05:34:55.464Z,46.08
2022-12-05T05:37:24.690Z,44.90
2022-12-05T05:39:54.057Z,46.13
2022-12-05T05:42:23.283Z,46.08
2022-12-05T05:44:52.570Z,46.88
2022-12-05T05:47:21.815Z,45.73
2022-12-05T05:49:51.079Z,46.90
2022-12-05T05:52:20.312Z,46.80
2022-12-05T05:54:49.698Z,45.70
2022-12-05T05:57:20.662Z,47.20
2022-12-05T05:59:50.066Z,44.98
2022-12-05T06:02:19.310Z,47.17
2022-12-05T06:04:48.507Z,47.58
2022-12-05T06:07:17.876Z,46.70
2022-12-05T06:09:47.092Z,45.80
2022-12-05T06:12:16.346Z,44.53
2022-12-05T06:14:45.646Z,46.48
2022-12-05T06:17:15.075Z,44.15
2022-12-05T06:19:44.479Z,46.15
2022-12-05T06:22:13.875Z,44.95
2022-12-05T06:24:43.138Z,43.55
2022-12-05T06:27:12.406Z,43.17
2022-12-05T06:29:41.802Z,43.40
2022-12-05T06:32:11.062Z,42.95
2022-12-05T06:34:40.357Z,40.80
2022-12-05T06:37:09.756Z,41.25
2022-12-05T06:39:39.055Z,40.78
2022-12-05T06:42:08.370Z,41.80
2022-12-05T06:44:37.653Z,42.43
2022-12-05T06:47:06.914Z,41.55
2022-12-05T06:49:38.273Z,42.67
2022-12-05T06:52:07.461Z,41.68
2022-12-05T06:54:36.921Z,41.37
2022-12-05T06:57:06.178Z,39.95
2022-12-05T06:59:35.448Z,41.40
2022-12-05T07:02:06.569Z,40.80
2022-12-05T07:04:36.301Z,40.83
2022-12-05T07:07:05.700Z,40.75
2022-12-05T07:09:48.338Z,39.48
2022-12-05T07:14:49.324Z,40.28
2022-12-05T07:17:19.810Z,40.92
2022-12-05T07:19:50.082Z,40.12
2022-12-05T07:22:20.511Z,40.88
2022-12-05T07:24:52.540Z,40.15
2022-12-05T07:27:26.981Z,40.00
2022-12-05T07:29:52.888Z,42.00
2022-12-05T07:32:22.304Z,39.67
2022-12-05T07:34:55.313Z,40.95
2022-12-05T07:37:22.628Z,40.70
2022-12-05T07:39:56.094Z,40.55
2022-12-05T07:42:25.524Z,39.33
2022-12-05T07:44:54.725Z,40.12
2022-12-05T07:47:24.117Z,39.88
2022-12-05T07:49:53.354Z,39.78
2022-12-05T07:52:22.793Z,41.80
2022-12-05T07:54:52.024Z,39.65
2022-12-05T07:57:21.322Z,39.40
2022-12-05T07:59:50.548Z,39.83
2022-12-05T08:02:20.590Z,40.12
2022-12-05T08:04:49.835Z,39.38
2022-12-05T08:07:19.191Z,40.92
2022-12-05T08:09:48.426Z,40.25
2022-12-05T08:12:17.823Z,40.03
2022-12-05T08:14:47.029Z,38.25
2022-12-05T08:17:16.367Z,39.48
2022-12-05T08:19:45.644Z,40.52
2022-12-05T08:22:15.017Z,39.10
2022-12-05T08:24:44.297Z,38.92
2022-12-05T08:27:13.558Z,39.92
2022-12-05T08:29:42.829Z,38.42
2022-12-05T08:32:12.087Z,38.55
2022-12-05T08:34:41.281Z,39.08
2022-12-05T08:37:10.691Z,38.80
2022-12-05T08:39:39.966Z,39.88
2022-12-05T08:42:09.224Z,38.38
2022-12-05T08:44:38.443Z,37.15
2022-12-05T08:47:07.696Z,39.10
2022-12-05T08:49:36.905Z,39.08
2022-12-05T08:52:06.221Z,38.78
2022-12-05T08:54:35.529Z,38.78
2022-12-05T08:57:04.812Z,39.00
2022-12-05T08:59:34.037Z,38.85
2022-12-05T09:02:03.959Z,38.35
2022-12-05T09:04:33.398Z,38.42
2022-12-05T09:07:03.823Z,39.78
2022-12-05T09:09:33.614Z,38.85
2022-12-05T09:12:03.095Z,38.38
2022-12-05T09:14:33.125Z,39.23
2022-12-05T09:17:02.459Z,37.38
2022-12-05T09:19:32.159Z,38.53
2022-12-05T09:22:01.393Z,39.67
2022-12-05T09:24:30.613Z,38.65
2022-12-05T09:26:59.870Z,38.65
2022-12-05T09:29:30.760Z,38.63
2022-12-05T09:32:00.023Z,37.03
2022-12-05T09:34:29.422Z,39.90
2022-12-05T09:37:16.696Z,38.35
2022-12-05T09:39:31.290Z,37.98
2022-12-05T09:42:13.284Z,39.55
2022-12-05T09:44:57.948Z,39.10
2022-12-05T09:47:44.927Z,39.18
2022-12-05T09:50:32.390Z,38.53
2022-12-05T09:53:19.776Z,39.42
2022-12-05T09:55:52.321Z,39.75
2022-12-05T10:01:34.107Z,36.13
2022-12-05T10:04:37.560Z,37.58
2022-12-05T10:07:29.654Z,36.95
2022-12-05T10:10:20.244Z,36.60
2022-12-05T10:12:51.303Z,36.93
2022-12-05T10:17:59.878Z,35.98
2022-12-05T10:20:49.981Z,38.23
2022-12-05T10:28:35.222Z,36.05
2022-12-05T10:31:07.692Z,35.88
2022-12-05T10:33:39.427Z,37.70
2022-12-05T10:36:16.142Z,37.25
2022-12-05T10:38:46.242Z,36.38
2022-12-05T10:41:16.289Z,37.23
2022-12-05T10:43:46.482Z,37.80
2022-12-05T10:46:18.301Z,37.00
2022-12-05T10:48:47.677Z,37.08
2022-12-05T10:51:19.652Z,36.70
2022-12-05T10:53:52.210Z,37.50
2022-12-05T10:59:08.579Z,36.30
2022-12-05T11:04:13.823Z,36.40
2022-12-05T11:06:45.692Z,36.88
2022-12-05T11:09:18.159Z,34.83
2022-12-05T11:11:50.561Z,34.23
2022-12-05T11:14:25.566Z,33.95
2022-12-05T11:16:57.274Z,32.55
2022-12-05T11:19:34.703Z,32.43
2022-12-05T11:22:04.817Z,32.33
2022-12-05T11:24:35.757Z,32.35
2022-12-05T11:27:21.132Z,32.17
2022-12-05T11:30:15.097Z,31.77
2022-12-05T11:32:44.336Z,31.87
2022-12-05T11:35:16.753Z,30.92
2022-12-05T11:38:05.495Z,31.37
2022-12-05T11:40:38.858Z,31.82
2022-12-05T11:43:29.579Z,31.05
2022-12-05T11:46:10.486Z,30.00
2022-12-05T11:49:05.510Z,28.35
2022-12-05T11:51:57.258Z,28.95
2022-12-05T11:55:06.591Z,28.42
2022-12-05T11:57:40.987Z,27.50
2022-12-05T12:00:25.582Z,29.15
2022-12-05T12:03:22.353Z,29.95
2022-12-05T12:06:06.870Z,27.62
2022-12-05T12:08:42.258Z,26.87
2022-12-05T12:11:20.496Z,27.65
2022-12-05T12:14:13.907Z,28.47
2022-12-05T12:17:04.627Z,26.73
2022-12-05T12:19:52.170Z,26.90
2022-12-05T12:22:41.265Z,26.70
2022-12-05T12:25:40.352Z,27.22
2022-12-05T12:28:24.810Z,27.82
2022-12-05T12:31:09.014Z,27.95
2022-12-05T12:33:44.590Z,26.57
2022-12-05T12:36:46.448Z,28.05
2022-12-05T12:39:36.563Z,26.45
2022-12-05T12:42:08.958Z,26.57
2022-12-05T12:45:08.864Z,27.02
2022-12-05T12:47:56.549Z,26.25
2022-12-05T12:50:31.295Z,25.00
2022-12-05T12:53:06.505Z,26.12
2022-12-05T12:55:42.029Z,26.30
2022-12-05T12:58:47.997Z,25.75
2022-12-05T13:01:36.822Z,25.05
2022-12-05T13:04:18.854Z,26.23
2022-12-05T13:07:06.410Z,25.07
2022-12-05T13:09:39.064Z,24.25
2022-12-05T13:12:13.304Z,24.85
2022-12-05T13:14:51.366Z,24.98
2022-12-05T13:17:21.408Z,24.32
2022-12-05T13:19:52.681Z,24.52
2022-12-05T13:22:23.844Z,24.07
2022-12-05T13:24:54.307Z,24.80
2022-12-05T13:27:27.543Z,23.95
2022-12-05T13:30:02.319Z,23.92
2022-12-05T13:32:34.434Z,23.40
2022-12-05T13:35:10.066Z,23.22
2022-12-05T13:38:04.556Z,24.32
2022-12-05T13:40:56.723Z,23.38
2022-12-05T13:43:28.208Z,23.95
2022-12-05T13:46:06.531Z,22.80
2022-12-05T13:48:43.638Z,23.55
2022-12-05T13:51:24.800Z,20.08
2022-12-05T13:54:14.840Z,21.10
2022-12-05T13:56:52.468Z,19.50
2022-12-05T13:59:45.096Z,19.42
2022-12-05T14:02:33.694Z,19.70
2022-12-05T14:05:04.236Z,18.70
2022-12-05T14:07:39.368Z,19.55
2022-12-05T14:10:10.653Z,17.20
2022-12-05T14:12:54.750Z,16.80
2022-12-05T14:15:30.008Z,15.80
2022-12-05T14:18:02.404Z,14.20
2022-12-05T14:26:08.791Z,11.15
2022-12-05T14:28:55.470Z,11.65
2022-12-05T14:31:44.902Z,11.50
2022-12-05T14:34:25.374Z,12.18
2022-12-05T14:37:06.433Z,11.93
2022-12-05T14:39:51.683Z,11.80
2022-12-05T14:42:23.946Z,12.05
2022-12-05T14:44:56.099Z,11.65
2022-12-05T14:47:28.605Z,12.05
2022-12-05T14:52:34.448Z,12.05
2022-12-05T14:55:12.695Z,12.00
2022-12-05T14:57:49.467Z,11.80
2022-12-05T15:00:23.774Z,12.58
2022-12-05T15:02:55.602Z,12.13
2022-12-05T15:05:31.145Z,11.80
2022-12-05T15:08:01.556Z,12.60
2022-12-05T15:10:39.988Z,12.20
2022-12-05T15:13:20.534Z,11.78
2022-12-05T15:16:09.134Z,12.13
2022-12-05T15:18:50.488Z,12.90
2022-12-05T15:21:31.665Z,12.37
2022-12-05T15:24:02.705Z,12.85
2022-12-05T15:26:47.978Z,14.07
2022-12-05T15:29:29.109Z,13.22
2022-12-05T15:32:02.283Z,14.05
2022-12-05T15:35:09.237Z,14.10
2022-12-05T15:37:55.887Z,14.45
2022-12-05T15:40:26.259Z,14.60
2022-12-05T15:42:57.594Z,14.43
2022-12-05T15:45:28.850Z,14.60
2022-12-05T15:48:10.220Z,14.65
2022-12-05T15:50:50.501Z,14.78
2022-12-05T15:53:22.894Z,14.07
2022-12-05T15:55:57.140Z,14.23
2022-12-05T15:58:28.424Z,14.47
2022-12-05T16:01:03.611Z,16.12
2022-12-05T16:03:39.472Z,14.53
2022-12-05T16:06:17.259Z,16.25
2022-12-05T16:08:51.240Z,15.98
2022-12-05T16:11:20.753Z,15.25
2022-12-05T16:13:58.006Z,16.37
2022-12-05T16:16:30.606Z,16.00
2022-12-05T16:21:39.298Z,15.93
2022-12-05T16:24:22.907Z,17.50
2022-12-05T16:26:58.132Z,16.65
2022-12-05T16:29:29.494Z,16.65
2022-12-05T16:32:00.448Z,16.55
2022-12-05T16:34:30.634Z,16.73
2022-12-05T16:37:00.236Z,16.10
2022-12-05T16:39:30.160Z,15.58
2022-12-05T16:41:59.474Z,15.32
2022-12-05T16:44:34.896Z,15.83
2022-12-05T16:47:04.180Z,15.95
2022-12-05T16:49:35.169Z,15.90
2022-12-05T16:52:14.321Z,16.35
2022-12-05T16:54:46.178Z,16.32
2022-12-05T16:57:16.987Z,17.85
2022-12-05T16:59:47.972Z,18.20
2022-12-05T17:02:19.207Z,17.75
2022-12-05T17:04:48.600Z,18.87
2022-12-05T17:07:17.914Z,18.52
2022-12-05T17:09:47.159Z,18.25
2022-12-05T17:12:19.556Z,18.85
2022-12-05T17:14:48.792Z,18.57
2022-12-05T17:17:19.024Z,17.02
2022-12-05T17:19:48.361Z,17.92
2022-12-05T17:22:18.181Z,16.97
2022-12-05T17:24:47.519Z,16.67
2022-12-05T17:27:17.798Z,17.05
2022-12-05T17:29:47.229Z,16.20
2022-12-05T17:32:16.436Z,16.30
2022-12-05T17:34:45.858Z,16.60
2022-12-05T17:37:15.442Z,16.85
2022-12-05T17:39:44.681Z,17.12
2022-12-05T17:42:13.888Z,16.67
2022-12-05T17:44:43.213Z,17.23
2022-12-05T17:47:12.463Z,17.85
2022-12-05T17:49:41.782Z,18.80
2022-12-05T17:52:21.417Z,17.60
2022-12-05T17:57:12.295Z,16.75
2022-12-05T17:59:41.495Z,18.10
2022-12-05T18:02:12.153Z,18.45
2022-12-05T18:04:41.375Z,17.90
2022-12-05T18:07:10.790Z,17.48
2022-12-05T18:09:40.024Z,16.65
2022-12-05T18:12:09.373Z,16.15
2022-12-05T18:14:39.479Z,16.65
2022-12-05T18:17:08.725Z,15.98
2022-12-05T18:19:38.030Z,15.70
2022-12-05T18:22:07.274Z,16.02
2022-12-05T18:24:36.588Z,15.48
2022-12-05T18:27:05.823Z,15.60
2022-12-05T18:29:35.218Z,16.27
2022-12-05T18:32:04.562Z,16.35
2022-12-05T18:34:33.876Z,16.67
2022-12-05T18:37:03.106Z,16.10
2022-12-05T18:39:32.428Z,15.23
2022-12-05T18:42:01.690Z,15.80
2022-12-05T18:44:31.792Z,14.65
2022-12-05T18:47:01.002Z,14.33
2022-12-05T18:49:30.339Z,14.65
2022-12-05T18:51:59.680Z,14.73
2022-12-05T18:54:29.041Z,14.80
2022-12-05T18:56:58.273Z,14.35
2022-12-05T18:59:28.729Z,14.18
2022-12-05T19:01:59.797Z,15.15
2022-12-05T19:04:29.957Z,13.65
2022-12-05T19:07:01.914Z,13.18
2022-12-05T19:09:32.437Z,13.45
2022-12-05T19:12:01.884Z,13.10
2022-12-05T19:14:33.182Z,12.82
2022-12-05T19:19:32.667Z,12.00
2022-12-05T19:22:02.297Z,11.75
2022-12-05T19:24:31.684Z,12.53
2022-12-05T19:27:01.032Z,11.93
2022-12-05T19:29:30.254Z,11.73
2022-12-05T19:31:59.642Z,11.57
2022-12-05T19:34:32.072Z,11.33
2022-12-05T19:37:01.363Z,11.28
2022-12-05T19:39:30.730Z,10.90
2022-12-05T19:42:00.380Z,11.10
2022-12-05T19:44:29.695Z,11.08
2022-12-05T19:46:59.072Z,11.48
2022-12-05T19:49:28.333Z,10.50
2022-12-05T19:51:57.815Z,10.72
2022-12-05T19:54:27.166Z,10.45
2022-12-05T19:56:58.411Z,10.75
2022-12-05T19:59:27.819Z,10.43
2022-12-05T20:01:57.338Z,10.50
2022-12-05T20:04:26.683Z,10.50
2022-12-05T20:06:55.946Z,10.28
2022-12-05T20:09:25.208Z,10.78
2022-12-05T20:11:56.014Z,10.55
2022-12-05T20:14:26.569Z,10.18
2022-12-05T20:16:56.498Z,10.20
2022-12-05T20:19:25.882Z,10.25
2022-12-05T20:21:55.593Z,10.08
2022-12-05T20:24:25.275Z,10.93
2022-12-05T20:26:54.921Z,10.05
2022-12-05T20:29:27.312Z,10.28
2022-12-05T20:31:58.625Z,10.58
2022-12-05T20:34:30.919Z,10.18
2022-12-05T20:37:00.366Z,10.65
2022-12-05T20:39:29.739Z,10.48
2022-12-05T20:41:59.110Z,10.40
2022-12-05T20:44:28.337Z,9.95
2022-12-05T20:46:57.924Z,10.63
2022-12-05T20:49:27.200Z,10.35
2022-12-05T20:51:56.783Z,9.90
2022-12-05T20:54:26.081Z,9.48
2022-12-05T20:56:55.419Z,10.10
2022-12-05T20:59:24.782Z,9.50
2022-12-05T21:01:54.610Z,9.58
2022-12-05T21:04:24.251Z,9.83
2022-12-05T21:06:53.855Z,9.40
2022-12-05T21:09:30.363Z,9.00
2022-12-05T21:11:59.834Z,9.20
2022-12-05T21:14:29.836Z,9.90
2022-12-05T21:16:59.152Z,9.10
2022-12-05T21:19:29.176Z,8.90
2022-12-05T21:21:58.691Z,8.70
2022-12-05T21:24:28.735Z,8.78
2022-12-05T21:26:58.038Z,8.30
2022-12-05T21:29:27.334Z,8.30
2022-12-05T21:31:56.603Z,9.40
2022-12-05T21:34:25.933Z,8.48
2022-12-05T21:37:08.549Z,8.00
2022-12-05T21:39:44.252Z,7.85
2022-12-05T21:42:13.551Z,7.87
2022-12-05T21:44:42.864Z,7.83
2022-12-05T21:47:12.117Z,7.95
2022-12-05T21:49:41.423Z,7.62
2022-12-05T21:52:10.665Z,7.47
2022-12-05T21:54:39.908Z,7.15
2022-12-05T21:57:09.234Z,7.33
2022-12-05T21:59:38.481Z,6.62
2022-12-05T22:02:08.271Z,6.60
2022-12-05T22:04:37.588Z,6.60
2022-12-05T22:07:06.880Z,6.50
2022-12-05T22:09:36.187Z,6.50
2022-12-05T22:12:06.016Z,6.42
2022-12-05T22:14:35.272Z,6.60
2022-12-05T22:17:04.574Z,7.12
2022-12-05T22:19:33.958Z,7.42
2022-12-05T22:22:03.191Z,6.97
2022-12-05T22:24:32.812Z,7.12
2022-12-05T22:27:02.083Z,8.35
2022-12-05T22:29:31.372Z,8.90
2022-12-05T22:32:00.646Z,9.33
2022-12-05T22:34:30.351Z,10.72
2022-12-05T22:37:00.719Z,11.20
2022-12-05T22:39:30.645Z,11.18
2022-12-05T22:41:59.984Z,12.05
2022-12-05T22:44:29.757Z,12.95
2022-12-05T22:46:59.129Z,13.60
2022-12-05T22:49:28.376Z,13.85
2022-12-05T22:51:59.211Z,14.10
2022-12-05T22:54:30.358Z,14.38
2022-12-05T22:56:59.510Z,14.23
2022-12-05T22:59:28.838Z,14.20
2022-12-05T23:01:58.184Z,14.13
2022-12-05T23:04:27.951Z,14.15
2022-12-05T23:06:57.477Z,14.50
2022-12-05T23:09:27.301Z,15.30
2022-12-05T23:11:56.641Z,13.85
2022-12-05T23:14:26.176Z,14.78
2022-12-05T23:16:55.596Z,13.32
2022-12-05T23:19:26.527Z,14.28
2022-12-05T23:21:55.936Z,13.90
2022-12-05T23:24:25.553Z,13.55
2022-12-05T23:26:54.966Z,13.43
2022-12-05T23:29:24.571Z,14.30
2022-12-05T23:31:54.086Z,13.62
2022-12-05T23:34:23.618Z,14.30
2022-12-05T23:36:53.113Z,13.18
2022-12-05T23:39:22.605Z,14.07
2022-12-05T23:41:52.248Z,13.55
2022-12-05T23:44:21.805Z,14.20
2022-12-05T23:46:51.398Z,14.93
2022-12-05T23:49:21.031Z,13.45
2022-12-05T23:51:50.924Z,13.50
2022-12-05T23:54:20.461Z,15.08
2022-12-05T23:56:50.055Z,13.55
2022-12-05T23:59:19.521Z,13.10
